Moose River, Canada
Current Conditions -  °F | °C
As of 8:00 AM on Tuesday 21 Oct 2014 (Local Time) from CYMO Reporting Station
Overcast Overcast  
Wind Chill: 29°   Ceiling: 2900
Heat Index: 34°   Visibility: 9mi
Dew Point: 32°   Wind: 6mph
Humidity: 93%   Direction: 330°NNW
Pressure: 30.29"   Gusts: NA
Location:  50.8°N, 81.28°W
Report Text: CYMO 211200Z AUTO 33005KT 9SM OVC029 01/M00 A3029 RMK SLP256
Loading
Personal Weather Stations






























Interactive Weather Map
Tropical Storm Tracking
New forecast layout! Learn more

10-Day Weather Forecast

Advertisements
Track Severe Weather on mobile